Current Conditions
Mostly Clear
Conditions



Pressure
1024.92 (hPa) - 30.27 (inHG)
Visibility

10.0 (km) - 6.2 (miles)
   Temperature
8  °C
Temperature
3  °C
Dewpoint
71  %
 Humidity
   Wind Speed
8  km/h
4  kts
5  mph
2.2  m/s
   Wind Direction
N
45°
E
90°
135°
S
180°
225°
W
270°
315°
 230°

South West
   Airport Data
ELLX
Luxembourg-Findel International Airport
Metar :ELLX 032120Z 23004KT CAVOK 08/03 Q1025 NOSIG
Wed 3rd March 22:20 pm
   Raw Metar Info
Raw METAR is the most common format in the world for the transmission of observational weather data. It is highly standardized through the International Civil Aviation Organization (ICAO), which allows it to be understood throughout most of the world.
   API Info
Data Provided by
https://www.checkwx.com/weather/ELLX

Aviation Weather providing METAR, TAF, AIRMET, SIGMET and OUTLOOK Weather Reports
   © Info
CSS/SVG/PHP scripts were developed by weather34.com for use in the weather34 template © 2015-2021

Guide Info provided by Metar-Wikipedia